sensor_id;sensor_type;location;lat;lon;timestamp;P1;durP1;ratioP1;P2;durP2;ratioP2
58071;SDS011;60383;46.626;18.866;2024-03-02T00:00:49;20.13;;;12.57;;
58071;SDS011;60383;46.626;18.866;2024-03-02T00:03:16;19.03;;;12.50;;
58071;SDS011;60383;46.626;18.866;2024-03-02T00:05:41;22.17;;;13.05;;
58071;SDS011;60383;46.626;18.866;2024-03-02T00:08:07;17.67;;;11.75;;
58071;SDS011;60383;46.626;18.866;2024-03-02T00:10:36;19.10;;;12.68;;
58071;SDS011;60383;46.626;18.866;2024-03-02T00:13:05;19.80;;;12.60;;
58071;SDS011;60383;46.626;18.866;2024-03-02T00:18:18;19.35;;;12.55;;
58071;SDS011;60383;46.626;18.866;2024-03-02T00:20:45;19.05;;;12.15;;
58071;SDS011;60383;46.626;18.866;2024-03-02T00:23:12;19.65;;;12.80;;
58071;SDS011;60383;46.626;18.866;2024-03-02T00:25:41;18.50;;;12.27;;
58071;SDS011;60383;46.626;18.866;2024-03-02T00:28:13;17.55;;;11.95;;
58071;SDS011;60383;46.626;18.866;2024-03-02T00:33:35;18.33;;;11.85;;
58071;SDS011;60383;46.626;18.866;2024-03-02T00:36:03;21.05;;;12.60;;
58071;SDS011;60383;46.626;18.866;2024-03-02T00:38:30;18.50;;;11.90;;
58071;SDS011;60383;46.626;18.866;2024-03-02T00:40:57;20.52;;;12.48;;
58071;SDS011;60383;46.626;18.866;2024-03-02T00:45:49;21.70;;;12.73;;
58071;SDS011;60383;46.626;18.866;2024-03-02T00:48:15;19.70;;;11.95;;
58071;SDS011;60383;46.626;18.866;2024-03-02T00:50:41;19.83;;;11.75;;
58071;SDS011;60383;46.626;18.866;2024-03-02T00:53:09;18.75;;;12.00;;
58071;SDS011;60383;46.626;18.866;2024-03-02T00:55:37;20.05;;;12.75;;
58071;SDS011;60383;46.626;18.866;2024-03-02T00:58:02;19.02;;;12.25;;
58071;SDS011;60383;46.626;18.866;2024-03-02T01:00:28;20.20;;;12.80;;
58071;SDS011;60383;46.626;18.866;2024-03-02T01:02:53;18.55;;;12.25;;
58071;SDS011;60383;46.626;18.866;2024-03-02T01:05:19;18.05;;;12.38;;
58071;SDS011;60383;46.626;18.866;2024-03-02T01:07:45;21.35;;;13.02;;
58071;SDS011;60383;46.626;18.866;2024-03-02T01:10:11;20.10;;;12.35;;
58071;SDS011;60383;46.626;18.866;2024-03-02T01:12:36;22.65;;;12.93;;
58071;SDS011;60383;46.626;18.866;2024-03-02T01:15:02;19.25;;;12.35;;
58071;SDS011;60383;46.626;18.866;2024-03-02T01:17:31;19.85;;;12.90;;
58071;SDS011;60383;46.626;18.866;2024-03-02T01:19:56;21.73;;;12.48;;
58071;SDS011;60383;46.626;18.866;2024-03-02T01:22:22;19.95;;;12.07;;
58071;SDS011;60383;46.626;18.866;2024-03-02T01:24:50;18.52;;;12.07;;
58071;SDS011;60383;46.626;18.866;2024-03-02T01:27:16;21.00;;;12.40;;
58071;SDS011;60383;46.626;18.866;2024-03-02T01:29:41;18.20;;;11.82;;
58071;SDS011;60383;46.626;18.866;2024-03-02T01:32:07;16.40;;;11.65;;
58071;SDS011;60383;46.626;18.866;2024-03-02T01:34:32;19.30;;;12.10;;
58071;SDS011;60383;46.626;18.866;2024-03-02T01:36:58;21.80;;;12.00;;
58071;SDS011;60383;46.626;18.866;2024-03-02T01:39:23;20.98;;;12.63;;
58071;SDS011;60383;46.626;18.866;2024-03-02T01:41:49;20.58;;;12.38;;
58071;SDS011;60383;46.626;18.866;2024-03-02T01:44:14;19.02;;;12.80;;
58071;SDS011;60383;46.626;18.866;2024-03-02T01:46:40;20.10;;;11.88;;
58071;SDS011;60383;46.626;18.866;2024-03-02T01:49:06;22.10;;;12.65;;
58071;SDS011;60383;46.626;18.866;2024-03-02T01:51:31;19.13;;;12.18;;
58071;SDS011;60383;46.626;18.866;2024-03-02T01:53:57;20.20;;;13.07;;
58071;SDS011;60383;46.626;18.866;2024-03-02T01:56:22;16.65;;;11.52;;
58071;SDS011;60383;46.626;18.866;2024-03-02T01:58:48;19.67;;;12.77;;
58071;SDS011;60383;46.626;18.866;2024-03-02T02:01:13;22.60;;;12.95;;
58071;SDS011;60383;46.626;18.866;2024-03-02T02:03:39;20.25;;;12.40;;
58071;SDS011;60383;46.626;18.866;2024-03-02T02:06:05;19.20;;;12.55;;
58071;SDS011;60383;46.626;18.866;2024-03-02T02:08:32;19.70;;;12.15;;
58071;SDS011;60383;46.626;18.866;2024-03-02T02:10:57;22.10;;;12.95;;
58071;SDS011;60383;46.626;18.866;2024-03-02T02:13:23;23.10;;;13.05;;
58071;SDS011;60383;46.626;18.866;2024-03-02T02:15:49;20.55;;;12.45;;
58071;SDS011;60383;46.626;18.866;2024-03-02T02:18:15;21.00;;;12.75;;
58071;SDS011;60383;46.626;18.866;2024-03-02T02:20:40;20.38;;;12.82;;
58071;SDS011;60383;46.626;18.866;2024-03-02T02:23:06;20.42;;;12.45;;
58071;SDS011;60383;46.626;18.866;2024-03-02T02:25:34;20.33;;;13.10;;
58071;SDS011;60383;46.626;18.866;2024-03-02T02:28:00;18.45;;;13.20;;
58071;SDS011;60383;46.626;18.866;2024-03-02T02:30:26;22.75;;;12.90;;
58071;SDS011;60383;46.626;18.866;2024-03-02T02:32:53;20.08;;;13.00;;
58071;SDS011;60383;46.626;18.866;2024-03-02T02:35:19;17.90;;;12.15;;
58071;SDS011;60383;46.626;18.866;2024-03-02T02:37:45;22.30;;;13.70;;
58071;SDS011;60383;46.626;18.866;2024-03-02T02:40:12;20.30;;;13.63;;
58071;SDS011;60383;46.626;18.866;2024-03-02T02:42:38;23.60;;;13.98;;
58071;SDS011;60383;46.626;18.866;2024-03-02T02:45:04;22.92;;;12.85;;
58071;SDS011;60383;46.626;18.866;2024-03-02T02:47:30;21.67;;;13.32;;
58071;SDS011;60383;46.626;18.866;2024-03-02T02:49:56;22.15;;;13.63;;
58071;SDS011;60383;46.626;18.866;2024-03-02T02:52:21;22.65;;;13.38;;
58071;SDS011;60383;46.626;18.866;2024-03-02T02:54:47;22.75;;;13.63;;
58071;SDS011;60383;46.626;18.866;2024-03-02T02:57:12;22.20;;;13.65;;
58071;SDS011;60383;46.626;18.866;2024-03-02T02:59:38;21.75;;;14.07;;
58071;SDS011;60383;46.626;18.866;2024-03-02T03:02:03;22.98;;;13.93;;
58071;SDS011;60383;46.626;18.866;2024-03-02T03:04:29;21.65;;;13.45;;
58071;SDS011;60383;46.626;18.866;2024-03-02T03:06:54;22.63;;;13.75;;
58071;SDS011;60383;46.626;18.866;2024-03-02T03:09:20;21.17;;;13.10;;
58071;SDS011;60383;46.626;18.866;2024-03-02T03:11:45;20.73;;;13.85;;
58071;SDS011;60383;46.626;18.866;2024-03-02T03:14:11;22.52;;;14.10;;
58071;SDS011;60383;46.626;18.866;2024-03-02T03:16:36;23.95;;;14.32;;
58071;SDS011;60383;46.626;18.866;2024-03-02T03:19:02;23.15;;;14.02;;
58071;SDS011;60383;46.626;18.866;2024-03-02T03:21:27;21.15;;;13.85;;
58071;SDS011;60383;46.626;18.866;2024-03-02T03:23:52;22.95;;;13.70;;
58071;SDS011;60383;46.626;18.866;2024-03-02T03:26:18;24.65;;;14.43;;
58071;SDS011;60383;46.626;18.866;2024-03-02T03:28:43;21.33;;;13.25;;
58071;SDS011;60383;46.626;18.866;2024-03-02T03:31:09;22.23;;;14.20;;
58071;SDS011;60383;46.626;18.866;2024-03-02T03:33:35;24.42;;;15.13;;
58071;SDS011;60383;46.626;18.866;2024-03-02T03:36:01;22.80;;;14.73;;
58071;SDS011;60383;46.626;18.866;2024-03-02T03:38:28;25.83;;;15.18;;
58071;SDS011;60383;46.626;18.866;2024-03-02T03:40:54;24.85;;;15.85;;
58071;SDS011;60383;46.626;18.866;2024-03-02T03:43:20;25.58;;;14.73;;
58071;SDS011;60383;46.626;18.866;2024-03-02T03:45:45;24.60;;;14.90;;
58071;SDS011;60383;46.626;18.866;2024-03-02T03:48:11;24.48;;;14.68;;
58071;SDS011;60383;46.626;18.866;2024-03-02T03:50:36;26.35;;;14.98;;
58071;SDS011;60383;46.626;18.866;2024-03-02T03:53:03;26.33;;;14.77;;
58071;SDS011;60383;46.626;18.866;2024-03-02T03:55:28;28.00;;;15.38;;
58071;SDS011;60383;46.626;18.866;2024-03-02T03:57:54;25.33;;;15.27;;
58071;SDS011;60383;46.626;18.866;2024-03-02T04:00:19;23.73;;;14.90;;
58071;SDS011;60383;46.626;18.866;2024-03-02T04:02:45;24.70;;;14.98;;
58071;SDS011;60383;46.626;18.866;2024-03-02T04:05:10;26.23;;;14.98;;
58071;SDS011;60383;46.626;18.866;2024-03-02T04:07:36;27.10;;;15.45;;
58071;SDS011;60383;46.626;18.866;2024-03-02T04:10:09;25.52;;;15.30;;
58071;SDS011;60383;46.626;18.866;2024-03-02T04:12:35;25.23;;;14.80;;
58071;SDS011;60383;46.626;18.866;2024-03-02T04:15:02;24.65;;;14.48;;
58071;SDS011;60383;46.626;18.866;2024-03-02T04:17:29;25.67;;;14.10;;
58071;SDS011;60383;46.626;18.866;2024-03-02T04:19:54;23.67;;;14.73;;
58071;SDS011;60383;46.626;18.866;2024-03-02T04:22:20;25.65;;;15.85;;
58071;SDS011;60383;46.626;18.866;2024-03-02T04:24:45;22.50;;;14.55;;
58071;SDS011;60383;46.626;18.866;2024-03-02T04:27:11;26.98;;;15.27;;
58071;SDS011;60383;46.626;18.866;2024-03-02T04:29:36;25.35;;;15.55;;
58071;SDS011;60383;46.626;18.866;2024-03-02T04:32:01;24.02;;;15.15;;
58071;SDS011;60383;46.626;18.866;2024-03-02T04:34:27;24.45;;;15.05;;
58071;SDS011;60383;46.626;18.866;2024-03-02T04:36:52;25.00;;;14.63;;
58071;SDS011;60383;46.626;18.866;2024-03-02T04:39:18;25.88;;;15.80;;
58071;SDS011;60383;46.626;18.866;2024-03-02T04:41:43;28.50;;;16.13;;
58071;SDS011;60383;46.626;18.866;2024-03-02T04:44:09;25.83;;;16.08;;
58071;SDS011;60383;46.626;18.866;2024-03-02T04:46:34;25.08;;;14.73;;
58071;SDS011;60383;46.626;18.866;2024-03-02T04:48:59;25.73;;;14.75;;
58071;SDS011;60383;46.626;18.866;2024-03-02T04:51:25;26.60;;;14.85;;
58071;SDS011;60383;46.626;18.866;2024-03-02T04:53:50;30.88;;;16.17;;
58071;SDS011;60383;46.626;18.866;2024-03-02T04:56:16;26.58;;;14.77;;
58071;SDS011;60383;46.626;18.866;2024-03-02T04:58:56;29.52;;;16.45;;
58071;SDS011;60383;46.626;18.866;2024-03-02T05:01:22;24.08;;;15.60;;
58071;SDS011;60383;46.626;18.866;2024-03-02T05:03:47;27.90;;;15.10;;
58071;SDS011;60383;46.626;18.866;2024-03-02T05:06:12;26.17;;;15.48;;
58071;SDS011;60383;46.626;18.866;2024-03-02T05:08:38;27.02;;;14.73;;
58071;SDS011;60383;46.626;18.866;2024-03-02T05:11:03;28.33;;;14.57;;
58071;SDS011;60383;46.626;18.866;2024-03-02T05:13:47;24.20;;;15.02;;
58071;SDS011;60383;46.626;18.866;2024-03-02T05:16:13;26.80;;;15.98;;
58071;SDS011;60383;46.626;18.866;2024-03-02T05:18:38;25.58;;;15.05;;
58071;SDS011;60383;46.626;18.866;2024-03-02T05:21:04;25.40;;;14.73;;
58071;SDS011;60383;46.626;18.866;2024-03-02T05:23:29;26.10;;;15.25;;
58071;SDS011;60383;46.626;18.866;2024-03-02T05:25:56;24.35;;;15.10;;
58071;SDS011;60383;46.626;18.866;2024-03-02T05:28:21;27.30;;;15.15;;
58071;SDS011;60383;46.626;18.866;2024-03-02T05:30:46;24.67;;;15.07;;
58071;SDS011;60383;46.626;18.866;2024-03-02T05:33:12;25.02;;;15.75;;
58071;SDS011;60383;46.626;18.866;2024-03-02T05:35:38;24.88;;;14.50;;
58071;SDS011;60383;46.626;18.866;2024-03-02T05:38:03;23.33;;;14.35;;
58071;SDS011;60383;46.626;18.866;2024-03-02T05:40:28;23.92;;;15.35;;
58071;SDS011;60383;46.626;18.866;2024-03-02T05:42:54;28.60;;;15.43;;
58071;SDS011;60383;46.626;18.866;2024-03-02T05:45:19;26.40;;;16.55;;
58071;SDS011;60383;46.626;18.866;2024-03-02T05:47:45;22.33;;;15.95;;
58071;SDS011;60383;46.626;18.866;2024-03-02T05:50:10;24.77;;;15.63;;
58071;SDS011;60383;46.626;18.866;2024-03-02T05:52:35;23.45;;;14.77;;
58071;SDS011;60383;46.626;18.866;2024-03-02T05:55:01;24.10;;;15.00;;
58071;SDS011;60383;46.626;18.866;2024-03-02T05:57:26;25.13;;;14.85;;
58071;SDS011;60383;46.626;18.866;2024-03-02T06:00:12;24.65;;;14.63;;
58071;SDS011;60383;46.626;18.866;2024-03-02T06:02:41;22.75;;;14.95;;
58071;SDS011;60383;46.626;18.866;2024-03-02T06:05:06;27.67;;;15.18;;
58071;SDS011;60383;46.626;18.866;2024-03-02T06:07:32;22.75;;;14.77;;
58071;SDS011;60383;46.626;18.866;2024-03-02T06:09:58;27.15;;;14.93;;
58071;SDS011;60383;46.626;18.866;2024-03-02T06:12:23;21.48;;;14.75;;
58071;SDS011;60383;46.626;18.866;2024-03-02T06:14:49;21.73;;;14.52;;
58071;SDS011;60383;46.626;18.866;2024-03-02T06:17:14;21.10;;;14.25;;
58071;SDS011;60383;46.626;18.866;2024-03-02T06:19:40;22.52;;;14.95;;
58071;SDS011;60383;46.626;18.866;2024-03-02T06:22:05;25.35;;;15.43;;
58071;SDS011;60383;46.626;18.866;2024-03-02T06:24:31;23.33;;;14.13;;
58071;SDS011;60383;46.626;18.866;2024-03-02T06:26:56;22.50;;;14.63;;
58071;SDS011;60383;46.626;18.866;2024-03-02T06:29:22;22.58;;;14.48;;
58071;SDS011;60383;46.626;18.866;2024-03-02T06:31:47;25.13;;;15.00;;
58071;SDS011;60383;46.626;18.866;2024-03-02T06:34:12;21.67;;;14.10;;
58071;SDS011;60383;46.626;18.866;2024-03-02T06:36:41;24.50;;;15.82;;
58071;SDS011;60383;46.626;18.866;2024-03-02T06:39:07;24.02;;;14.80;;
58071;SDS011;60383;46.626;18.866;2024-03-02T06:41:33;22.55;;;14.27;;
58071;SDS011;60383;46.626;18.866;2024-03-02T06:43:59;22.45;;;14.90;;
58071;SDS011;60383;46.626;18.866;2024-03-02T06:46:27;22.85;;;14.68;;
58071;SDS011;60383;46.626;18.866;2024-03-02T06:48:52;22.17;;;14.82;;
58071;SDS011;60383;46.626;18.866;2024-03-02T06:51:18;20.48;;;13.88;;
58071;SDS011;60383;46.626;18.866;2024-03-02T06:53:43;23.42;;;13.65;;
58071;SDS011;60383;46.626;18.866;2024-03-02T06:56:09;22.25;;;14.60;;
58071;SDS011;60383;46.626;18.866;2024-03-02T06:58:34;21.60;;;13.25;;
58071;SDS011;60383;46.626;18.866;2024-03-02T07:01:00;23.58;;;14.43;;
58071;SDS011;60383;46.626;18.866;2024-03-02T07:03:28;21.65;;;14.77;;
58071;SDS011;60383;46.626;18.866;2024-03-02T07:05:53;21.48;;;13.95;;
58071;SDS011;60383;46.626;18.866;2024-03-02T07:08:19;22.38;;;14.45;;
58071;SDS011;60383;46.626;18.866;2024-03-02T07:10:44;21.73;;;14.35;;
58071;SDS011;60383;46.626;18.866;2024-03-02T07:13:09;21.10;;;14.27;;
58071;SDS011;60383;46.626;18.866;2024-03-02T07:15:35;20.27;;;14.50;;
58071;SDS011;60383;46.626;18.866;2024-03-02T07:18:19;23.35;;;14.30;;
58071;SDS011;60383;46.626;18.866;2024-03-02T07:20:44;21.63;;;14.07;;
58071;SDS011;60383;46.626;18.866;2024-03-02T07:23:10;21.90;;;14.43;;
58071;SDS011;60383;46.626;18.866;2024-03-02T07:25:35;20.38;;;13.50;;
58071;SDS011;60383;46.626;18.866;2024-03-02T07:28:01;19.80;;;13.43;;
58071;SDS011;60383;46.626;18.866;2024-03-02T07:30:26;20.65;;;14.02;;
58071;SDS011;60383;46.626;18.866;2024-03-02T07:32:51;21.83;;;14.25;;
58071;SDS011;60383;46.626;18.866;2024-03-02T07:35:17;22.92;;;14.13;;
58071;SDS011;60383;46.626;18.866;2024-03-02T07:37:43;24.58;;;14.18;;
58071;SDS011;60383;46.626;18.866;2024-03-02T07:40:09;20.67;;;13.40;;
58071;SDS011;60383;46.626;18.866;2024-03-02T07:42:38;20.15;;;13.00;;
58071;SDS011;60383;46.626;18.866;2024-03-02T07:45:05;19.90;;;14.02;;
58071;SDS011;60383;46.626;18.866;2024-03-02T07:47:32;19.60;;;13.80;;
58071;SDS011;60383;46.626;18.866;2024-03-02T07:49:58;20.75;;;13.15;;
58071;SDS011;60383;46.626;18.866;2024-03-02T07:52:24;19.73;;;14.30;;
58071;SDS011;60383;46.626;18.866;2024-03-02T07:54:49;21.08;;;13.85;;
58071;SDS011;60383;46.626;18.866;2024-03-02T07:57:15;19.77;;;13.65;;
58071;SDS011;60383;46.626;18.866;2024-03-02T07:59:40;21.30;;;14.70;;
58071;SDS011;60383;46.626;18.866;2024-03-02T08:02:06;21.58;;;14.75;;
58071;SDS011;60383;46.626;18.866;2024-03-02T08:04:32;22.30;;;14.45;;
58071;SDS011;60383;46.626;18.866;2024-03-02T08:06:57;22.27;;;14.90;;
58071;SDS011;60383;46.626;18.866;2024-03-02T08:09:23;22.63;;;15.07;;
58071;SDS011;60383;46.626;18.866;2024-03-02T08:11:48;22.10;;;15.23;;
58071;SDS011;60383;46.626;18.866;2024-03-02T08:14:14;22.67;;;15.20;;
58071;SDS011;60383;46.626;18.866;2024-03-02T08:16:39;22.48;;;14.88;;
58071;SDS011;60383;46.626;18.866;2024-03-02T08:19:05;23.13;;;14.85;;
58071;SDS011;60383;46.626;18.866;2024-03-02T08:21:31;24.15;;;16.05;;
58071;SDS011;60383;46.626;18.866;2024-03-02T08:23:57;24.55;;;16.38;;
58071;SDS011;60383;46.626;18.866;2024-03-02T08:26:23;23.30;;;16.15;;
58071;SDS011;60383;46.626;18.866;2024-03-02T08:28:49;24.20;;;16.42;;
58071;SDS011;60383;46.626;18.866;2024-03-02T08:31:14;25.70;;;15.63;;
58071;SDS011;60383;46.626;18.866;2024-03-02T08:33:39;23.67;;;15.43;;
58071;SDS011;60383;46.626;18.866;2024-03-02T08:36:05;23.20;;;15.45;;
58071;SDS011;60383;46.626;18.866;2024-03-02T08:38:31;25.20;;;17.35;;
58071;SDS011;60383;46.626;18.866;2024-03-02T08:40:57;24.08;;;16.40;;
58071;SDS011;60383;46.626;18.866;2024-03-02T08:43:22;25.75;;;16.48;;
58071;SDS011;60383;46.626;18.866;2024-03-02T08:45:48;25.00;;;16.52;;
58071;SDS011;60383;46.626;18.866;2024-03-02T08:48:14;24.77;;;16.55;;
58071;SDS011;60383;46.626;18.866;2024-03-02T08:50:40;26.23;;;17.35;;
58071;SDS011;60383;46.626;18.866;2024-03-02T08:53:05;25.25;;;16.60;;
58071;SDS011;60383;46.626;18.866;2024-03-02T08:55:31;26.30;;;17.45;;
58071;SDS011;60383;46.626;18.866;2024-03-02T08:57:56;26.77;;;16.88;;
58071;SDS011;60383;46.626;18.866;2024-03-02T09:00:22;25.15;;;17.08;;
58071;SDS011;60383;46.626;18.866;2024-03-02T09:02:48;28.40;;;16.48;;
58071;SDS011;60383;46.626;18.866;2024-03-02T09:05:14;29.13;;;17.80;;
58071;SDS011;60383;46.626;18.866;2024-03-02T09:07:40;25.13;;;16.10;;
58071;SDS011;60383;46.626;18.866;2024-03-02T09:10:05;27.02;;;17.48;;
58071;SDS011;60383;46.626;18.866;2024-03-02T09:12:32;28.30;;;17.35;;
58071;SDS011;60383;46.626;18.866;2024-03-02T09:14:57;28.60;;;18.88;;
58071;SDS011;60383;46.626;18.866;2024-03-02T09:17:24;28.73;;;17.23;;
58071;SDS011;60383;46.626;18.866;2024-03-02T09:19:49;31.45;;;18.65;;
58071;SDS011;60383;46.626;18.866;2024-03-02T09:22:18;29.38;;;19.00;;
58071;SDS011;60383;46.626;18.866;2024-03-02T09:24:43;32.20;;;19.05;;
58071;SDS011;60383;46.626;18.866;2024-03-02T09:27:09;29.33;;;18.52;;
58071;SDS011;60383;46.626;18.866;2024-03-02T09:29:34;28.45;;;18.70;;
58071;SDS011;60383;46.626;18.866;2024-03-02T09:32:00;29.48;;;19.27;;
58071;SDS011;60383;46.626;18.866;2024-03-02T09:34:25;30.20;;;18.35;;
58071;SDS011;60383;46.626;18.866;2024-03-02T09:36:51;34.15;;;19.85;;
58071;SDS011;60383;46.626;18.866;2024-03-02T09:39:17;33.50;;;19.75;;
58071;SDS011;60383;46.626;18.866;2024-03-02T09:41:43;29.73;;;18.55;;
58071;SDS011;60383;46.626;18.866;2024-03-02T09:44:09;32.55;;;20.52;;
58071;SDS011;60383;46.626;18.866;2024-03-02T09:46:35;30.90;;;18.23;;
58071;SDS011;60383;46.626;18.866;2024-03-02T09:49:01;31.30;;;19.00;;
58071;SDS011;60383;46.626;18.866;2024-03-02T09:51:27;33.53;;;21.20;;
58071;SDS011;60383;46.626;18.866;2024-03-02T09:53:53;35.55;;;20.45;;
58071;SDS011;60383;46.626;18.866;2024-03-02T09:56:20;30.40;;;19.20;;
58071;SDS011;60383;46.626;18.866;2024-03-02T09:58:46;32.53;;;19.45;;
58071;SDS011;60383;46.626;18.866;2024-03-02T10:01:12;32.53;;;19.67;;
58071;SDS011;60383;46.626;18.866;2024-03-02T10:03:37;31.35;;;19.02;;
58071;SDS011;60383;46.626;18.866;2024-03-02T10:06:24;33.40;;;19.75;;
58071;SDS011;60383;46.626;18.866;2024-03-02T10:08:51;32.33;;;20.65;;
58071;SDS011;60383;46.626;18.866;2024-03-02T10:11:30;31.67;;;19.45;;
58071;SDS011;60383;46.626;18.866;2024-03-02T10:16:37;33.15;;;19.98;;
58071;SDS011;60383;46.626;18.866;2024-03-02T10:21:51;34.40;;;20.85;;
58071;SDS011;60383;46.626;18.866;2024-03-02T10:24:18;31.35;;;19.90;;
58071;SDS011;60383;46.626;18.866;2024-03-02T10:26:44;33.30;;;20.70;;
58071;SDS011;60383;46.626;18.866;2024-03-02T10:29:10;35.75;;;20.80;;
58071;SDS011;60383;46.626;18.866;2024-03-02T10:31:37;34.25;;;21.88;;
58071;SDS011;60383;46.626;18.866;2024-03-02T10:34:03;36.22;;;21.50;;
58071;SDS011;60383;46.626;18.866;2024-03-02T10:36:29;35.47;;;21.70;;
58071;SDS011;60383;46.626;18.866;2024-03-02T10:38:56;34.65;;;21.25;;
58071;SDS011;60383;46.626;18.866;2024-03-02T10:41:26;35.88;;;21.75;;
58071;SDS011;60383;46.626;18.866;2024-03-02T10:43:55;36.08;;;22.02;;
58071;SDS011;60383;46.626;18.866;2024-03-02T10:46:28;36.15;;;22.02;;
58071;SDS011;60383;46.626;18.866;2024-03-02T10:51:23;34.83;;;21.40;;
58071;SDS011;60383;46.626;18.866;2024-03-02T10:53:53;35.75;;;21.48;;
58071;SDS011;60383;46.626;18.866;2024-03-02T10:56:29;33.67;;;21.13;;
58071;SDS011;60383;46.626;18.866;2024-03-02T11:01:33;38.10;;;22.75;;
58071;SDS011;60383;46.626;18.866;2024-03-02T11:03:59;36.10;;;21.65;;
58071;SDS011;60383;46.626;18.866;2024-03-02T11:06:29;38.05;;;22.50;;
58071;SDS011;60383;46.626;18.866;2024-03-02T11:08:58;39.20;;;22.38;;
58071;SDS011;60383;46.626;18.866;2024-03-02T11:11:30;37.60;;;21.67;;
58071;SDS011;60383;46.626;18.866;2024-03-02T11:14:00;37.72;;;22.23;;
58071;SDS011;60383;46.626;18.866;2024-03-02T11:16:36;41.13;;;23.42;;
58071;SDS011;60383;46.626;18.866;2024-03-02T11:19:10;38.60;;;22.52;;
58071;SDS011;60383;46.626;18.866;2024-03-02T11:21:37;39.63;;;22.52;;
58071;SDS011;60383;46.626;18.866;2024-03-02T11:26:48;37.38;;;22.35;;
58071;SDS011;60383;46.626;18.866;2024-03-02T11:32:00;40.20;;;23.48;;
58071;SDS011;60383;46.626;18.866;2024-03-02T11:34:30;37.90;;;22.48;;
58071;SDS011;60383;46.626;18.866;2024-03-02T11:37:04;37.13;;;22.55;;
58071;SDS011;60383;46.626;18.866;2024-03-02T11:39:30;38.80;;;22.13;;
58071;SDS011;60383;46.626;18.866;2024-03-02T11:41:57;36.05;;;21.35;;
58071;SDS011;60383;46.626;18.866;2024-03-02T11:44:27;37.38;;;22.33;;
58071;SDS011;60383;46.626;18.866;2024-03-02T11:46:58;39.03;;;22.98;;
58071;SDS011;60383;46.626;18.866;2024-03-02T11:52:05;40.53;;;23.02;;
58071;SDS011;60383;46.626;18.866;2024-03-02T11:54:32;41.20;;;22.85;;
58071;SDS011;60383;46.626;18.866;2024-03-02T11:57:01;38.53;;;23.08;;
58071;SDS011;60383;46.626;18.866;2024-03-02T11:59:28;40.60;;;23.52;;
58071;SDS011;60383;46.626;18.866;2024-03-02T12:01:55;41.53;;;23.23;;
58071;SDS011;60383;46.626;18.866;2024-03-02T12:04:21;35.63;;;21.15;;
58071;SDS011;60383;46.626;18.866;2024-03-02T12:06:48;40.80;;;23.02;;
58071;SDS011;60383;46.626;18.866;2024-03-02T12:09:20;39.25;;;23.10;;
58071;SDS011;60383;46.626;18.866;2024-03-02T12:11:46;42.38;;;23.80;;
58071;SDS011;60383;46.626;18.866;2024-03-02T12:14:11;39.50;;;23.42;;
58071;SDS011;60383;46.626;18.866;2024-03-02T12:16:44;38.35;;;22.48;;
58071;SDS011;60383;46.626;18.866;2024-03-02T12:19:09;39.92;;;23.48;;
58071;SDS011;60383;46.626;18.866;2024-03-02T12:21:35;44.25;;;24.38;;
58071;SDS011;60383;46.626;18.866;2024-03-02T12:24:01;40.88;;;23.92;;
58071;SDS011;60383;46.626;18.866;2024-03-02T12:26:27;38.60;;;22.83;;
58071;SDS011;60383;46.626;18.866;2024-03-02T12:28:53;41.05;;;22.92;;
58071;SDS011;60383;46.626;18.866;2024-03-02T12:31:19;43.22;;;24.02;;
58071;SDS011;60383;46.626;18.866;2024-03-02T12:33:45;41.17;;;22.55;;
58071;SDS011;60383;46.626;18.866;2024-03-02T12:36:13;39.30;;;23.20;;
58071;SDS011;60383;46.626;18.866;2024-03-02T12:38:43;40.92;;;24.27;;
58071;SDS011;60383;46.626;18.866;2024-03-02T12:41:09;42.10;;;23.67;;
58071;SDS011;60383;46.626;18.866;2024-03-02T12:43:34;44.55;;;24.85;;
58071;SDS011;60383;46.626;18.866;2024-03-02T12:46:00;41.97;;;23.73;;
58071;SDS011;60383;46.626;18.866;2024-03-02T12:48:25;40.88;;;23.17;;
58071;SDS011;60383;46.626;18.866;2024-03-02T12:50:51;44.15;;;24.67;;
58071;SDS011;60383;46.626;18.866;2024-03-02T12:53:17;43.67;;;24.98;;
58071;SDS011;60383;46.626;18.866;2024-03-02T12:55:42;43.55;;;24.80;;
58071;SDS011;60383;46.626;18.866;2024-03-02T12:58:16;43.58;;;25.88;;
58071;SDS011;60383;46.626;18.866;2024-03-02T13:00:42;44.28;;;24.88;;
58071;SDS011;60383;46.626;18.866;2024-03-02T13:03:07;45.40;;;27.05;;
58071;SDS011;60383;46.626;18.866;2024-03-02T13:05:33;43.25;;;25.25;;
58071;SDS011;60383;46.626;18.866;2024-03-02T13:07:58;46.30;;;27.70;;
58071;SDS011;60383;46.626;18.866;2024-03-02T13:10:28;44.20;;;27.52;;
58071;SDS011;60383;46.626;18.866;2024-03-02T13:12:54;46.97;;;26.13;;
58071;SDS011;60383;46.626;18.866;2024-03-02T13:15:19;46.88;;;26.45;;
58071;SDS011;60383;46.626;18.866;2024-03-02T13:17:45;45.25;;;25.70;;
58071;SDS011;60383;46.626;18.866;2024-03-02T13:20:14;45.70;;;27.55;;
58071;SDS011;60383;46.626;18.866;2024-03-02T13:22:40;45.95;;;27.55;;
58071;SDS011;60383;46.626;18.866;2024-03-02T13:25:05;44.40;;;26.30;;
58071;SDS011;60383;46.626;18.866;2024-03-02T13:27:33;45.10;;;26.65;;
58071;SDS011;60383;46.626;18.866;2024-03-02T13:29:58;46.30;;;27.75;;
58071;SDS011;60383;46.626;18.866;2024-03-02T13:32:24;44.20;;;26.48;;
58071;SDS011;60383;46.626;18.866;2024-03-02T13:34:51;41.25;;;25.75;;
58071;SDS011;60383;46.626;18.866;2024-03-02T13:37:16;42.90;;;25.73;;
58071;SDS011;60383;46.626;18.866;2024-03-02T13:39:42;46.63;;;27.48;;
58071;SDS011;60383;46.626;18.866;2024-03-02T13:42:08;44.30;;;26.13;;
58071;SDS011;60383;46.626;18.866;2024-03-02T13:44:35;44.63;;;27.02;;
58071;SDS011;60383;46.626;18.866;2024-03-02T13:47:01;43.80;;;27.13;;
58071;SDS011;60383;46.626;18.866;2024-03-02T13:49:27;46.58;;;27.05;;
58071;SDS011;60383;46.626;18.866;2024-03-02T13:51:58;46.95;;;27.75;;
58071;SDS011;60383;46.626;18.866;2024-03-02T13:54:29;48.20;;;27.27;;
58071;SDS011;60383;46.626;18.866;2024-03-02T13:56:55;44.35;;;27.33;;
58071;SDS011;60383;46.626;18.866;2024-03-02T13:59:23;46.22;;;28.67;;
58071;SDS011;60383;46.626;18.866;2024-03-02T14:01:50;42.55;;;26.00;;
58071;SDS011;60383;46.626;18.866;2024-03-02T14:04:15;43.78;;;27.45;;
58071;SDS011;60383;46.626;18.866;2024-03-02T14:06:42;44.72;;;28.10;;
58071;SDS011;60383;46.626;18.866;2024-03-02T14:09:08;43.83;;;27.73;;
58071;SDS011;60383;46.626;18.866;2024-03-02T14:11:34;43.55;;;26.65;;
58071;SDS011;60383;46.626;18.866;2024-03-02T14:13:59;46.65;;;26.33;;
58071;SDS011;60383;46.626;18.866;2024-03-02T14:16:25;44.92;;;26.25;;
58071;SDS011;60383;46.626;18.866;2024-03-02T14:18:50;44.20;;;26.35;;
58071;SDS011;60383;46.626;18.866;2024-03-02T14:21:15;42.10;;;26.63;;
58071;SDS011;60383;46.626;18.866;2024-03-02T14:23:41;92.70;;;57.28;;
58071;SDS011;60383;46.626;18.866;2024-03-02T14:26:06;55.03;;;33.97;;
58071;SDS011;60383;46.626;18.866;2024-03-02T14:28:32;43.00;;;26.70;;
58071;SDS011;60383;46.626;18.866;2024-03-02T14:30:57;42.53;;;26.67;;